createdAt,value
2019-04-03T00:01:52.866Z,40.30
2019-04-03T00:04:24.828Z,40.36
2019-04-03T00:06:56.816Z,40.56
2019-04-03T00:09:28.754Z,40.70
2019-04-03T00:12:01.172Z,40.75
2019-04-03T00:14:33.182Z,40.88
2019-04-03T00:17:05.250Z,40.98
2019-04-03T00:19:37.303Z,40.99
2019-04-03T00:22:10.400Z,41.39
2019-04-03T00:24:42.452Z,41.50
2019-04-03T00:27:15.409Z,41.55
2019-04-03T00:29:47.597Z,41.69
2019-04-03T00:32:19.544Z,41.83
2019-04-03T00:34:53.371Z,41.81
2019-04-03T00:37:25.410Z,41.74
2019-04-03T00:39:57.520Z,41.87
2019-04-03T00:42:29.484Z,41.94
2019-04-03T00:45:01.560Z,42.08
2019-04-03T00:47:33.490Z,42.18
2019-04-03T00:50:06.287Z,42.28
2019-04-03T00:52:38.350Z,42.30
2019-04-03T00:55:10.888Z,42.47
2019-04-03T00:57:42.843Z,42.52
2019-04-03T01:00:17.581Z,42.65
2019-04-03T01:02:49.545Z,42.71
2019-04-03T01:05:21.713Z,42.80
2019-04-03T01:07:53.723Z,42.84
2019-04-03T01:10:25.702Z,43.04
2019-04-03T01:12:57.660Z,43.34
2019-04-03T01:15:31.181Z,43.58
2019-04-03T01:18:05.126Z,43.62
2019-04-03T01:20:37.224Z,43.99
2019-04-03T01:23:10.324Z,44.12
2019-04-03T01:25:42.600Z,44.21
2019-04-03T01:28:14.652Z,44.44
2019-04-03T01:30:46.831Z,44.58
2019-04-03T01:33:18.751Z,44.69
2019-04-03T01:35:51.062Z,44.72
2019-04-03T01:38:22.995Z,44.93
2019-04-03T01:40:54.955Z,44.97
2019-04-03T01:43:26.910Z,45.04
2019-04-03T01:45:58.915Z,45.14
2019-04-03T01:48:30.848Z,45.24
2019-04-03T01:51:02.851Z,45.32
2019-04-03T01:53:34.796Z,45.46
2019-04-03T01:56:06.832Z,45.70
2019-04-03T01:58:41.278Z,46.04
2019-04-03T02:01:13.245Z,46.28
2019-04-03T02:03:45.164Z,46.54
2019-04-03T02:06:17.166Z,47.08
2019-04-03T02:08:49.202Z,47.31
2019-04-03T02:11:21.123Z,47.63
2019-04-03T02:13:53.078Z,47.94
2019-04-03T02:16:24.992Z,48.38
2019-04-03T02:18:57.043Z,48.58
2019-04-03T02:21:29.134Z,48.84
2019-04-03T02:24:01.790Z,49.06
2019-04-03T02:26:33.871Z,49.16
2019-04-03T02:29:08.199Z,49.20
2019-04-03T02:31:39.709Z,49.38
2019-04-03T02:34:12.093Z,49.54
2019-04-03T02:36:45.420Z,49.67
2019-04-03T02:39:17.663Z,49.90
2019-04-03T02:41:49.992Z,50.06
2019-04-03T02:44:22.020Z,50.18
2019-04-03T02:46:54.306Z,50.19
2019-04-03T02:49:26.454Z,50.32
2019-04-03T02:51:58.736Z,50.51
2019-04-03T02:54:35.769Z,50.69
2019-04-03T02:57:07.081Z,50.79
2019-04-03T02:59:39.330Z,50.98
2019-04-03T03:02:12.515Z,51.13
2019-04-03T03:04:45.013Z,51.28
2019-04-03T03:07:17.181Z,51.46
2019-04-03T03:09:49.321Z,51.70
2019-04-03T03:12:21.578Z,51.83
2019-04-03T03:14:53.901Z,51.98
2019-04-03T03:17:26.345Z,52.22
2019-04-03T03:20:00.268Z,52.34
2019-04-03T03:22:32.331Z,52.52
2019-04-03T03:25:04.992Z,52.76
2019-04-03T03:27:40.756Z,52.92
2019-04-03T03:30:33.195Z,53.15
2019-04-03T03:32:46.980Z,53.28
2019-04-03T03:35:27.886Z,53.44
2019-04-03T03:37:53.087Z,53.55
2019-04-03T03:40:25.058Z,53.73
2019-04-03T03:42:57.359Z,53.82
2019-04-03T03:45:32.130Z,54.07
2019-04-03T03:48:08.206Z,54.17
2019-04-03T03:50:39.115Z,54.41
2019-04-03T03:53:12.708Z,54.48
2019-04-03T03:55:47.013Z,54.82
2019-04-03T03:58:20.178Z,54.98
2019-04-03T04:00:53.222Z,55.03
2019-04-03T04:03:25.981Z,55.16
2019-04-03T04:05:58.238Z,55.35
2019-04-03T04:08:31.709Z,55.50
2019-04-03T04:11:04.520Z,55.52
2019-04-03T04:13:39.174Z,55.68
2019-04-03T04:16:11.254Z,55.79
2019-04-03T04:18:43.303Z,55.85
2019-04-03T04:21:16.631Z,56.02
2019-04-03T04:23:48.897Z,55.97
2019-04-03T04:26:22.762Z,55.99
2019-04-03T04:28:55.249Z,55.88
2019-04-03T04:31:27.217Z,55.69
2019-04-03T04:33:59.692Z,55.58
2019-04-03T04:36:31.664Z,55.32
2019-04-03T04:39:05.444Z,54.94
2019-04-03T04:41:37.580Z,54.51
2019-04-03T04:44:10.288Z,54.04
2019-04-03T04:46:44.573Z,53.25
2019-04-03T04:49:16.313Z,52.74
2019-04-03T04:51:48.259Z,52.22
2019-04-03T04:54:20.281Z,51.53
2019-04-03T04:56:52.960Z,50.46
2019-04-03T04:59:25.332Z,49.43
2019-04-03T05:01:57.306Z,48.67
2019-04-03T05:04:29.331Z,47.79
2019-04-03T05:07:01.683Z,46.75
2019-04-03T05:09:34.800Z,45.59
2019-04-03T05:12:09.447Z,44.54
2019-04-03T05:14:41.215Z,43.70
2019-04-03T05:17:13.196Z,42.66
2019-04-03T05:19:45.178Z,41.35
2019-04-03T05:22:17.138Z,40.66
2019-04-03T05:24:49.109Z,40.01
2019-04-03T05:27:21.073Z,39.24
2019-04-03T05:29:53.035Z,37.95
2019-04-03T05:32:25.089Z,36.74
2019-04-03T05:34:57.238Z,35.34
2019-04-03T05:37:29.853Z,34.26
2019-04-03T05:40:01.862Z,33.43
2019-04-03T05:42:34.218Z,32.56
2019-04-03T05:45:06.995Z,31.61
2019-04-03T05:47:39.876Z,31.34
2019-04-03T05:50:12.034Z,30.94
2019-04-03T05:52:44.164Z,30.77
2019-04-03T05:55:16.709Z,32.59
2019-04-03T05:57:48.938Z,33.31
2019-04-03T06:00:21.539Z,32.42
2019-04-03T06:02:54.706Z,31.33
2019-04-03T06:05:29.022Z,31.03
2019-04-03T06:08:01.219Z,30.47
2019-04-03T06:10:36.591Z,29.14
2019-04-03T06:13:06.984Z,27.66
2019-04-03T06:15:40.599Z,25.61
2019-04-03T06:18:12.702Z,24.22
2019-04-03T06:20:45.914Z,23.59
2019-04-03T06:23:20.974Z,23.12
2019-04-03T06:25:51.724Z,22.66
2019-04-03T06:28:23.910Z,21.85
2019-04-03T06:30:56.726Z,21.08
2019-04-03T06:33:31.433Z,21.19
2019-04-03T06:36:03.176Z,20.21
2019-04-03T06:38:36.268Z,19.51
2019-04-03T06:41:09.097Z,18.99
2019-04-03T06:43:41.455Z,19.70
2019-04-03T06:46:15.832Z,19.97
2019-04-03T06:48:47.863Z,20.18
2019-04-03T06:51:20.149Z,20.02
2019-04-03T06:53:52.237Z,18.95
2019-04-03T06:56:25.747Z,18.31
2019-04-03T06:58:57.971Z,17.64
2019-04-03T07:01:30.618Z,16.71
2019-04-03T07:04:02.723Z,16.50
2019-04-03T07:06:34.730Z,16.66
2019-04-03T07:09:21.215Z,16.36
2019-04-03T07:11:43.528Z,15.29
2019-04-03T07:14:17.315Z,14.75
2019-04-03T07:16:49.292Z,13.69
2019-04-03T07:19:21.272Z,13.51
2019-04-03T07:21:55.180Z,13.25
2019-04-03T07:24:26.942Z,13.17
2019-04-03T07:26:58.950Z,12.87
2019-04-03T07:29:30.934Z,12.20
2019-04-03T07:32:03.110Z,11.18
2019-04-03T07:34:35.481Z,10.29
2019-04-03T07:37:07.684Z,10.01
2019-04-03T07:39:39.915Z,9.66
2019-04-03T07:42:11.927Z,10.19
2019-04-03T07:44:44.135Z,11.01
2019-04-03T07:47:16.201Z,11.89
2019-04-03T07:49:48.301Z,11.55
2019-04-03T07:52:20.535Z,10.61
2019-04-03T07:54:53.097Z,9.88
2019-04-03T07:57:26.878Z,8.96
2019-04-03T07:59:59.966Z,8.22
2019-04-03T08:02:33.706Z,10.45
2019-04-03T08:05:07.007Z,13.42
2019-04-03T08:07:38.999Z,14.65
2019-04-03T08:10:11.334Z,15.21
2019-04-03T08:12:43.334Z,15.29
2019-04-03T08:15:15.438Z,13.91
2019-04-03T08:17:47.831Z,11.50
2019-04-03T08:20:21.194Z,9.56
2019-04-03T08:22:53.178Z,8.32
2019-04-03T08:25:25.273Z,8.76
2019-04-03T08:27:57.274Z,8.35
2019-04-03T08:30:29.422Z,8.29
2019-04-03T08:33:15.232Z,8.70
2019-04-03T08:35:37.766Z,8.40
2019-04-03T08:38:12.413Z,9.10
2019-04-03T08:40:43.593Z,9.62
2019-04-03T08:43:17.393Z,9.47
2019-04-03T08:45:51.303Z,9.66
2019-04-03T08:48:23.486Z,8.80
2019-04-03T08:50:57.808Z,7.86
2019-04-03T08:53:29.368Z,7.00
2019-04-03T08:56:01.517Z,6.86
2019-04-03T08:58:33.729Z,7.37
2019-04-03T09:01:05.991Z,6.79
2019-04-03T09:03:37.976Z,6.34
2019-04-03T09:06:10.255Z,6.38
2019-04-03T09:08:42.217Z,7.13
2019-04-03T09:11:14.171Z,7.14
2019-04-03T09:13:46.162Z,7.45
2019-04-03T09:16:18.239Z,7.24
2019-04-03T09:18:50.252Z,7.24
2019-04-03T09:21:22.251Z,7.05
2019-04-03T09:23:57.883Z,7.06
2019-04-03T09:26:33.005Z,7.17
2019-04-03T09:29:04.485Z,7.12
2019-04-03T09:31:36.509Z,7.05
2019-04-03T09:34:08.473Z,7.05
2019-04-03T09:36:40.730Z,7.60
2019-04-03T09:39:14.543Z,8.07
2019-04-03T09:41:46.842Z,8.37
2019-04-03T09:44:18.796Z,9.40
2019-04-03T09:46:50.819Z,10.63
2019-04-03T09:49:22.880Z,10.66
2019-04-03T09:51:54.947Z,11.09
2019-04-03T09:54:28.613Z,10.96
2019-04-03T09:57:04.586Z,11.21
2019-04-03T09:59:37.413Z,11.02
2019-04-03T10:02:09.244Z,11.86
2019-04-03T10:04:41.462Z,12.73
2019-04-03T10:07:13.486Z,13.58
2019-04-03T10:09:45.522Z,13.56
2019-04-03T10:12:17.532Z,13.61
2019-04-03T10:14:49.829Z,13.48
2019-04-03T10:17:22.198Z,13.19
2019-04-03T10:19:54.450Z,13.13
2019-04-03T10:22:26.736Z,12.54
2019-04-03T10:25:00.554Z,11.67
2019-04-03T10:27:32.546Z,10.79
2019-04-03T10:30:06.420Z,9.91
2019-04-03T10:32:38.506Z,9.60
2019-04-03T10:35:11.154Z,9.72
2019-04-03T10:37:46.377Z,9.63
2019-04-03T10:40:18.834Z,9.82
2019-04-03T10:42:51.533Z,10.37
2019-04-03T10:45:23.717Z,11.06
2019-04-03T10:47:56.707Z,10.85
2019-04-03T10:50:29.059Z,10.62
2019-04-03T10:53:01.165Z,10.20
2019-04-03T10:55:33.143Z,9.73
2019-04-03T10:58:07.701Z,10.80
2019-04-03T11:00:39.216Z,10.74
2019-04-03T11:03:11.561Z,10.95
2019-04-03T11:05:43.706Z,11.50
2019-04-03T11:08:15.877Z,12.21
2019-04-03T11:10:47.853Z,11.63
2019-04-03T11:13:20.245Z,11.91
2019-04-03T11:15:52.496Z,11.72
2019-04-03T11:18:24.635Z,11.64
2019-04-03T11:20:58.220Z,11.71
2019-04-03T11:23:40.526Z,11.62
2019-04-03T11:26:05.384Z,11.87
2019-04-03T11:28:38.400Z,12.22
2019-04-03T11:31:11.176Z,13.72
2019-04-03T11:33:45.933Z,13.62
2019-04-03T11:36:17.032Z,14.20
2019-04-03T11:38:50.181Z,14.73
2019-04-03T11:41:23.899Z,15.30
2019-04-03T11:43:56.368Z,16.10
2019-04-03T11:46:28.459Z,16.51
2019-04-03T11:49:01.117Z,16.73
2019-04-03T11:51:34.315Z,16.96
2019-04-03T11:54:07.896Z,17.74
2019-04-03T11:56:40.654Z,18.30
2019-04-03T11:59:12.803Z,18.22
2019-04-03T12:01:44.849Z,18.62
2019-04-03T12:04:16.982Z,18.31
2019-04-03T12:06:49.804Z,18.15
2019-04-03T12:09:23.034Z,19.23
2019-04-03T12:11:55.547Z,19.33
2019-04-03T12:14:28.112Z,19.43
2019-04-03T12:17:00.290Z,19.50
2019-04-03T12:19:32.663Z,19.23
2019-04-03T12:22:04.799Z,18.88
2019-04-03T12:24:36.790Z,18.87
2019-04-03T12:27:09.074Z,18.77
2019-04-03T12:29:41.181Z,18.71
2019-04-03T12:32:13.260Z,19.52
2019-04-03T12:34:45.243Z,19.52
2019-04-03T12:37:18.697Z,19.50
2019-04-03T12:39:51.015Z,19.58
2019-04-03T12:42:23.398Z,19.31
2019-04-03T12:44:55.907Z,19.19
2019-04-03T12:47:28.488Z,19.62
2019-04-03T12:50:00.989Z,19.20
2019-04-03T12:52:33.301Z,19.29
2019-04-03T12:55:06.140Z,19.15
2019-04-03T12:57:40.217Z,19.05
2019-04-03T13:00:13.914Z,19.66
2019-04-03T13:02:53.514Z,20.39
2019-04-03T13:05:25.705Z,20.27
2019-04-03T13:07:59.553Z,20.46
2019-04-03T13:10:41.341Z,20.77
2019-04-03T13:13:05.143Z,21.23
2019-04-03T13:15:38.092Z,21.69
2019-04-03T13:18:11.082Z,21.67
2019-04-03T13:20:43.068Z,22.04
2019-04-03T13:23:15.585Z,22.08
2019-04-03T13:25:47.852Z,22.09
2019-04-03T13:28:20.595Z,22.17
2019-04-03T13:30:53.119Z,22.17
2019-04-03T13:33:25.491Z,22.56
2019-04-03T13:35:57.426Z,22.65
2019-04-03T13:38:30.026Z,22.91
2019-04-03T13:41:04.677Z,23.03
2019-04-03T13:43:35.938Z,23.19
2019-04-03T13:46:08.075Z,23.48
2019-04-03T13:48:40.366Z,23.46
2019-04-03T13:51:12.962Z,23.53
2019-04-03T13:53:45.388Z,23.65
2019-04-03T13:56:17.521Z,23.32
2019-04-03T13:58:52.609Z,23.00
2019-04-03T14:01:27.642Z,22.32
2019-04-03T14:03:58.813Z,22.32
2019-04-03T14:06:31.050Z,22.45
2019-04-03T14:09:03.599Z,22.48
2019-04-03T14:11:36.023Z,22.33
2019-04-03T14:14:08.243Z,22.45
2019-04-03T14:16:40.695Z,22.52
2019-04-03T14:19:13.345Z,22.64
2019-04-03T14:21:47.406Z,22.71
2019-04-03T14:24:20.455Z,22.74
2019-04-03T14:26:52.751Z,22.54
2019-04-03T14:29:25.009Z,22.40
2019-04-03T14:31:57.193Z,22.30
2019-04-03T14:34:30.578Z,22.47
2019-04-03T14:37:03.059Z,22.60
2019-04-03T14:39:35.270Z,23.15
2019-04-03T14:42:08.245Z,23.04
2019-04-03T14:44:41.956Z,23.04
2019-04-03T14:47:14.464Z,22.76
2019-04-03T14:49:46.428Z,22.41
2019-04-03T14:52:18.608Z,22.09
2019-04-03T14:54:55.062Z,21.78
2019-04-03T14:57:26.902Z,21.76
2019-04-03T15:00:02.017Z,21.91
2019-04-03T15:02:32.771Z,22.11
2019-04-03T15:05:07.420Z,22.08
2019-04-03T15:07:39.234Z,22.40
2019-04-03T15:10:11.867Z,22.37
2019-04-03T15:12:45.904Z,22.48
2019-04-03T15:15:18.201Z,22.64
2019-04-03T15:17:51.079Z,22.79
2019-04-03T15:20:24.085Z,23.07
2019-04-03T15:22:56.471Z,23.22
2019-04-03T15:25:29.437Z,23.34
2019-04-03T15:28:01.830Z,23.54
2019-04-03T15:30:34.199Z,23.74
2019-04-03T15:33:06.923Z,23.79
2019-04-03T15:35:40.206Z,23.79
2019-04-03T15:38:13.479Z,23.45
2019-04-03T15:40:46.193Z,23.56
2019-04-03T15:43:18.349Z,23.43
2019-04-03T15:45:50.413Z,23.51
2019-04-03T15:48:22.864Z,23.65
2019-04-03T15:50:57.615Z,23.70
2019-04-03T15:53:30.283Z,23.88
2019-04-03T15:56:02.621Z,23.98
2019-04-03T15:58:34.646Z,24.01
2019-04-03T16:01:08.531Z,24.19
2019-04-03T16:03:41.344Z,24.18
2019-04-03T16:06:13.433Z,24.27
2019-04-03T16:08:47.442Z,24.18
2019-04-03T16:11:19.260Z,24.35
2019-04-03T16:13:51.342Z,24.33
2019-04-03T16:16:23.919Z,24.45
2019-04-03T16:18:57.277Z,24.69
2019-04-03T16:21:30.818Z,24.86
2019-04-03T16:24:02.963Z,25.08
2019-04-03T16:26:35.055Z,25.20
2019-04-03T16:29:08.721Z,25.23
2019-04-03T16:31:41.650Z,25.34
2019-04-03T16:34:13.779Z,25.46
2019-04-03T16:36:47.899Z,25.60
2019-04-03T16:39:20.807Z,25.63
2019-04-03T16:41:52.888Z,25.79
2019-04-03T16:44:26.283Z,25.59
2019-04-03T16:46:58.799Z,25.68
2019-04-03T16:49:31.440Z,25.58
2019-04-03T16:52:05.587Z,25.57
2019-04-03T16:54:37.635Z,25.73
2019-04-03T16:57:10.172Z,25.71
2019-04-03T16:59:42.602Z,25.80
2019-04-03T17:02:14.814Z,25.89
2019-04-03T17:04:47.002Z,26.00
2019-04-03T17:07:20.588Z,26.22
2019-04-03T17:09:52.820Z,26.32
2019-04-03T17:12:24.955Z,26.67
2019-04-03T17:14:57.088Z,26.71
2019-04-03T17:17:29.276Z,26.92
2019-04-03T17:20:01.227Z,27.05
2019-04-03T17:22:33.325Z,27.27
2019-04-03T17:25:06.024Z,27.47
2019-04-03T17:27:38.044Z,27.42
2019-04-03T17:30:11.334Z,27.48
2019-04-03T17:32:43.629Z,27.66
2019-04-03T17:35:16.308Z,27.78
2019-04-03T17:37:48.427Z,27.93
2019-04-03T17:40:20.748Z,28.12
2019-04-03T17:42:52.765Z,28.13
2019-04-03T17:45:24.801Z,28.19
2019-04-03T17:47:56.822Z,28.22
2019-04-03T17:50:29.688Z,28.21
2019-04-03T17:53:02.471Z,28.37
2019-04-03T17:55:34.736Z,28.69
2019-04-03T17:58:07.037Z,28.72
2019-04-03T18:00:39.119Z,28.93
2019-04-03T18:03:11.202Z,29.08
2019-04-03T18:05:43.149Z,29.14
2019-04-03T18:08:15.370Z,29.24
2019-04-03T18:10:47.534Z,29.39
2019-04-03T18:13:19.596Z,29.49
2019-04-03T18:15:51.683Z,29.56
2019-04-03T18:18:24.785Z,29.53
2019-04-03T18:20:57.067Z,29.67
2019-04-03T18:23:29.107Z,29.57
2019-04-03T18:26:01.975Z,29.56
2019-04-03T18:28:35.758Z,29.63
2019-04-03T18:31:07.848Z,29.66
2019-04-03T18:33:40.300Z,29.77
2019-04-03T18:36:12.443Z,29.79
2019-04-03T18:38:44.450Z,29.92
2019-04-03T18:41:16.859Z,30.08
2019-04-03T18:43:49.580Z,30.13
2019-04-03T18:46:31.607Z,30.35
2019-04-03T18:49:00.761Z,30.43
2019-04-03T18:51:29.290Z,30.72
2019-04-03T18:54:01.366Z,30.90
2019-04-03T18:56:35.475Z,30.98
2019-04-03T18:59:07.296Z,31.28
2019-04-03T19:01:39.344Z,31.44
2019-04-03T19:04:11.583Z,31.76
2019-04-03T19:06:44.727Z,31.76
2019-04-03T19:09:21.049Z,31.78
2019-04-03T19:11:51.675Z,32.00
2019-04-03T19:14:32.393Z,32.00
2019-04-03T19:16:57.553Z,32.25
2019-04-03T19:19:30.008Z,32.41
2019-04-03T19:22:02.217Z,32.44
2019-04-03T19:24:34.246Z,32.55
2019-04-03T19:27:06.371Z,32.85
2019-04-03T19:29:38.385Z,32.97
2019-04-03T19:32:12.242Z,32.93
2019-04-03T19:34:44.116Z,32.84
2019-04-03T19:37:16.042Z,32.83
2019-04-03T19:39:48.039Z,32.87
2019-04-03T19:42:20.403Z,32.81
2019-04-03T19:44:52.415Z,32.78
2019-04-03T19:47:24.662Z,32.69
2019-04-03T19:49:59.740Z,32.77
2019-04-03T19:52:30.947Z,32.79
2019-04-03T19:55:02.997Z,32.81
2019-04-03T19:57:34.958Z,33.02
2019-04-03T20:00:09.288Z,32.88
2019-04-03T20:02:43.050Z,32.95
2019-04-03T20:05:15.142Z,32.95
2019-04-03T20:07:47.106Z,32.72
2019-04-03T20:10:19.190Z,32.78
2019-04-03T20:12:51.263Z,32.69
2019-04-03T20:15:23.435Z,32.91
2019-04-03T20:17:55.491Z,32.98
2019-04-03T20:20:29.351Z,32.97
2019-04-03T20:23:01.182Z,32.97
2019-04-03T20:25:34.142Z,32.89
2019-04-03T20:28:06.208Z,32.93
2019-04-03T20:30:38.346Z,32.70
2019-04-03T20:33:11.812Z,32.85
2019-04-03T20:35:44.317Z,32.98
2019-04-03T20:38:16.312Z,32.98
2019-04-03T20:40:48.324Z,33.33
2019-04-03T20:43:20.671Z,33.25
2019-04-03T20:45:52.636Z,33.57
2019-04-03T20:48:27.991Z,33.64
2019-04-03T20:50:58.388Z,33.92
2019-04-03T20:53:30.798Z,34.29
2019-04-03T20:56:02.809Z,34.56
2019-04-03T20:58:34.808Z,34.91
2019-04-03T21:01:07.369Z,35.25
2019-04-03T21:03:39.510Z,35.51
2019-04-03T21:06:11.525Z,35.70
2019-04-03T21:08:43.487Z,36.01
2019-04-03T21:11:17.532Z,36.35
2019-04-03T21:13:49.916Z,36.22
2019-04-03T21:16:32.783Z,36.42
2019-04-03T21:18:55.584Z,36.66
2019-04-03T21:21:27.650Z,37.14
2019-04-03T21:24:00.246Z,37.23
2019-04-03T21:26:32.298Z,37.31
2019-04-03T21:29:04.377Z,37.38
2019-04-03T21:31:36.456Z,37.67
2019-04-03T21:34:08.465Z,38.05
2019-04-03T21:36:40.451Z,38.24
2019-04-03T21:39:12.886Z,38.52
2019-04-03T21:41:45.464Z,38.92
2019-04-03T21:44:17.468Z,39.16
2019-04-03T21:46:49.544Z,39.17
2019-04-03T21:49:21.563Z,39.59
2019-04-03T21:51:53.545Z,39.74
2019-04-03T21:54:26.864Z,40.14
2019-04-03T21:57:00.001Z,40.66
2019-04-03T21:59:32.117Z,40.88
2019-04-03T22:02:04.355Z,41.06
2019-04-03T22:04:36.649Z,40.84
2019-04-03T22:07:08.619Z,40.91
2019-04-03T22:09:40.956Z,41.07
2019-04-03T22:12:12.918Z,41.23
2019-04-03T22:14:44.935Z,41.30
2019-04-03T22:17:16.996Z,41.44
2019-04-03T22:19:49.294Z,41.60
2019-04-03T22:22:21.394Z,41.92
2019-04-03T22:24:53.477Z,41.82
2019-04-03T22:27:25.432Z,42.04
2019-04-03T22:29:57.503Z,42.14
2019-04-03T22:32:29.475Z,42.05
2019-04-03T22:35:01.609Z,42.32
2019-04-03T22:37:35.193Z,42.41
2019-04-03T22:40:09.924Z,42.15
2019-04-03T22:42:41.520Z,42.08
2019-04-03T22:45:13.608Z,42.16
2019-04-03T22:47:47.660Z,41.86
2019-04-03T22:50:20.477Z,41.92
2019-04-03T22:52:52.547Z,41.90
2019-04-03T22:55:24.499Z,41.72
2019-04-03T22:57:56.478Z,41.29
2019-04-03T23:00:28.943Z,41.25
2019-04-03T23:03:02.942Z,40.99
2019-04-03T23:05:35.292Z,40.54
2019-04-03T23:08:07.267Z,40.43
2019-04-03T23:10:39.294Z,40.38
2019-04-03T23:13:11.308Z,40.16
2019-04-03T23:15:43.398Z,40.04
2019-04-03T23:18:15.987Z,40.04
2019-04-03T23:20:48.557Z,40.08
2019-04-03T23:23:20.893Z,40.08
2019-04-03T23:25:52.889Z,40.27
2019-04-03T23:28:25.941Z,40.48
2019-04-03T23:30:57.955Z,40.63
2019-04-03T23:33:30.034Z,40.76
2019-04-03T23:36:04.169Z,40.83
2019-04-03T23:38:36.165Z,41.08
2019-04-03T23:41:08.245Z,41.37
2019-04-03T23:43:40.513Z,41.41
2019-04-03T23:46:12.763Z,41.68
2019-04-03T23:48:48.669Z,41.92
2019-04-03T23:51:23.384Z,41.94
2019-04-03T23:53:54.017Z,42.03
2019-04-03T23:56:25.954Z,42.09
2019-04-03T23:58:57.915Z,42.30
